Current | Forecast
Updated: 8:56 AM JST on October 23, 2017
Observed at Yokota AB, Japan
Temperature 68°F
Humidity 54%
Dew Point 51°F
Wind WNW at 8 mph
Pressure 29.11 in (Rising)
Conditions Mostly Cloudy
Visibility 10.0 miles
UV 2 out of 16
Clouds Mostly Cloudy (BKN) : 7000 ft
Yesterday's Maximum 64°F
Yesterday's Minimum 61°F approx.
Yesterday's Heating Degree Days 2 approx.
Sunrise5:55 AM JST
Sunset4:57 PM JST
Moon Rise8:46 AM JST
Moon Set7:23 PM JST
Moon PhaseMoon Phase
Waxing Crescent
Raw METARMETAR RJTY 222356Z AUTO 30007KT 10SM BKN070 20/11 A2911 RMK AO2 PRESRR SLP858 60276 71069 T02010105 10201 20158 52137 FZRANO $


Monday
. High: 75° F.
Tuesday
. High: 77° F.
Wednesday
. High: 68° F.
Thursday
. High: 71° F.
Friday
. High: 75° F.
Saturday
. High: 75° F.
Sunday
. High: 73° F.
Monday
. High: 71° F.

Units: English | Metric

Find the Weather for any City, State or Zipcode, or Country:

U.S. State List | Severe Weather | Tropical Storms | Ski Conditions
United States | Canada | Central America | South America | Asia | Europe | Australia | Africa | Islands

Weather Underground

© Copyright 2017
The Weather Company, LLC